sensor_id;sensor_type;location;lat;lon;timestamp;P1;durP1;ratioP1;P2;durP2;ratioP2
36247;SDS011;22287;50.824;5.644;2022-12-13T00:01:26;15.20;;;6.93;;
36247;SDS011;22287;50.824;5.644;2022-12-13T00:03:55;15.27;;;6.73;;
36247;SDS011;22287;50.824;5.644;2022-12-13T00:06:24;13.70;;;6.77;;
36247;SDS011;22287;50.824;5.644;2022-12-13T00:08:52;14.63;;;6.43;;
36247;SDS011;22287;50.824;5.644;2022-12-13T00:11:19;13.77;;;6.53;;
36247;SDS011;22287;50.824;5.644;2022-12-13T00:13:46;11.93;;;6.13;;
36247;SDS011;22287;50.824;5.644;2022-12-13T00:16:17;14.53;;;6.20;;
36247;SDS011;22287;50.824;5.644;2022-12-13T00:18:49;13.67;;;6.10;;
36247;SDS011;22287;50.824;5.644;2022-12-13T00:21:21;11.60;;;5.97;;
36247;SDS011;22287;50.824;5.644;2022-12-13T00:23:50;13.30;;;6.00;;
36247;SDS011;22287;50.824;5.644;2022-12-13T00:26:19;12.57;;;6.03;;
36247;SDS011;22287;50.824;5.644;2022-12-13T00:28:51;12.87;;;6.30;;
36247;SDS011;22287;50.824;5.644;2022-12-13T00:31:21;14.00;;;6.53;;
36247;SDS011;22287;50.824;5.644;2022-12-13T00:34:09;12.00;;;5.57;;
36247;SDS011;22287;50.824;5.644;2022-12-13T00:36:36;11.47;;;6.00;;
36247;SDS011;22287;50.824;5.644;2022-12-13T00:39:03;10.90;;;5.73;;
36247;SDS011;22287;50.824;5.644;2022-12-13T00:41:31;12.43;;;5.90;;
36247;SDS011;22287;50.824;5.644;2022-12-13T00:44:00;11.80;;;5.70;;
36247;SDS011;22287;50.824;5.644;2022-12-13T00:46:28;12.47;;;5.53;;
36247;SDS011;22287;50.824;5.644;2022-12-13T00:48:56;12.60;;;6.73;;
36247;SDS011;22287;50.824;5.644;2022-12-13T00:51:27;14.03;;;6.60;;
36247;SDS011;22287;50.824;5.644;2022-12-13T00:53:55;11.43;;;6.07;;
36247;SDS011;22287;50.824;5.644;2022-12-13T00:56:24;14.23;;;6.37;;
36247;SDS011;22287;50.824;5.644;2022-12-13T00:58:53;12.57;;;7.30;;
36247;SDS011;22287;50.824;5.644;2022-12-13T01:01:24;11.27;;;6.47;;
36247;SDS011;22287;50.824;5.644;2022-12-13T01:03:53;13.33;;;7.23;;
36247;SDS011;22287;50.824;5.644;2022-12-13T01:06:22;17.23;;;6.93;;
36247;SDS011;22287;50.824;5.644;2022-12-13T01:08:53;15.80;;;7.50;;
36247;SDS011;22287;50.824;5.644;2022-12-13T01:11:20;17.20;;;7.80;;
36247;SDS011;22287;50.824;5.644;2022-12-13T01:13:48;17.77;;;8.47;;
36247;SDS011;22287;50.824;5.644;2022-12-13T01:16:15;16.87;;;8.67;;
36247;SDS011;22287;50.824;5.644;2022-12-13T01:18:41;20.37;;;9.77;;
36247;SDS011;22287;50.824;5.644;2022-12-13T01:23:42;15.30;;;7.77;;
36247;SDS011;22287;50.824;5.644;2022-12-13T01:26:17;16.03;;;8.17;;
36247;SDS011;22287;50.824;5.644;2022-12-13T01:28:46;20.27;;;8.23;;
36247;SDS011;22287;50.824;5.644;2022-12-13T01:31:19;21.37;;;11.27;;
36247;SDS011;22287;50.824;5.644;2022-12-13T01:33:49;13.40;;;6.88;;
36247;SDS011;22287;50.824;5.644;2022-12-13T01:36:17;15.23;;;7.03;;
36247;SDS011;22287;50.824;5.644;2022-12-13T01:38:53;18.53;;;7.83;;
36247;SDS011;22287;50.824;5.644;2022-12-13T01:41:24;13.68;;;7.28;;
36247;SDS011;22287;50.824;5.644;2022-12-13T01:43:54;17.80;;;7.47;;
36247;SDS011;22287;50.824;5.644;2022-12-13T01:46:23;18.50;;;8.67;;
36247;SDS011;22287;50.824;5.644;2022-12-13T01:48:54;17.03;;;8.83;;
36247;SDS011;22287;50.824;5.644;2022-12-13T01:51:28;14.67;;;6.83;;
36247;SDS011;22287;50.824;5.644;2022-12-13T01:53:59;15.53;;;8.30;;
36247;SDS011;22287;50.824;5.644;2022-12-13T01:56:30;15.20;;;7.97;;
36247;SDS011;22287;50.824;5.644;2022-12-13T01:59:03;16.77;;;7.67;;
36247;SDS011;22287;50.824;5.644;2022-12-13T02:01:32;14.47;;;7.40;;
36247;SDS011;22287;50.824;5.644;2022-12-13T02:03:59;12.47;;;7.10;;
36247;SDS011;22287;50.824;5.644;2022-12-13T02:06:42;12.63;;;6.27;;
36247;SDS011;22287;50.824;5.644;2022-12-13T02:09:11;11.87;;;6.50;;
36247;SDS011;22287;50.824;5.644;2022-12-13T02:11:40;17.67;;;8.40;;
36247;SDS011;22287;50.824;5.644;2022-12-13T02:14:08;14.30;;;6.83;;
36247;SDS011;22287;50.824;5.644;2022-12-13T02:22:04;14.83;;;6.73;;
36247;SDS011;22287;50.824;5.644;2022-12-13T02:30:57;14.00;;;6.20;;
36247;SDS011;22287;50.824;5.644;2022-12-13T02:36:36;11.57;;;6.18;;
36247;SDS011;22287;50.824;5.644;2022-12-13T02:39:21;14.20;;;6.97;;
36247;SDS011;22287;50.824;5.644;2022-12-13T02:41:59;11.83;;;6.07;;
36247;SDS011;22287;50.824;5.644;2022-12-13T02:44:39;15.10;;;7.30;;
36247;SDS011;22287;50.824;5.644;2022-12-13T02:47:13;14.53;;;7.03;;
36247;SDS011;22287;50.824;5.644;2022-12-13T02:49:48;16.10;;;6.73;;
36247;SDS011;22287;50.824;5.644;2022-12-13T02:52:18;12.70;;;6.20;;
36247;SDS011;22287;50.824;5.644;2022-12-13T02:54:48;11.73;;;5.97;;
36247;SDS011;22287;50.824;5.644;2022-12-13T03:00:18;11.10;;;6.37;;
36247;SDS011;22287;50.824;5.644;2022-12-13T03:11:04;15.17;;;6.80;;
36247;SDS011;22287;50.824;5.644;2022-12-13T03:16:32;12.97;;;6.87;;
36247;SDS011;22287;50.824;5.644;2022-12-13T03:19:04;13.00;;;6.37;;
36247;SDS011;22287;50.824;5.644;2022-12-13T03:21:38;11.50;;;6.23;;
36247;SDS011;22287;50.824;5.644;2022-12-13T03:24:18;12.30;;;6.03;;
36247;SDS011;22287;50.824;5.644;2022-12-13T03:26:47;13.90;;;6.03;;
36247;SDS011;22287;50.824;5.644;2022-12-13T03:29:15;12.73;;;6.17;;
36247;SDS011;22287;50.824;5.644;2022-12-13T03:31:49;14.67;;;7.13;;
36247;SDS011;22287;50.824;5.644;2022-12-13T03:34:16;14.97;;;7.80;;
36247;SDS011;22287;50.824;5.644;2022-12-13T03:36:47;14.17;;;6.63;;
36247;SDS011;22287;50.824;5.644;2022-12-13T03:39:14;14.63;;;6.23;;
36247;SDS011;22287;50.824;5.644;2022-12-13T03:41:41;12.27;;;6.70;;
36247;SDS011;22287;50.824;5.644;2022-12-13T03:44:07;15.10;;;6.93;;
36247;SDS011;22287;50.824;5.644;2022-12-13T03:46:34;12.87;;;6.67;;
36247;SDS011;22287;50.824;5.644;2022-12-13T03:49:01;13.30;;;7.30;;
36247;SDS011;22287;50.824;5.644;2022-12-13T03:51:28;12.53;;;6.70;;
36247;SDS011;22287;50.824;5.644;2022-12-13T03:53:55;13.17;;;6.67;;
36247;SDS011;22287;50.824;5.644;2022-12-13T03:56:42;13.87;;;7.53;;
36247;SDS011;22287;50.824;5.644;2022-12-13T03:59:09;13.10;;;6.37;;
36247;SDS011;22287;50.824;5.644;2022-12-13T04:01:38;10.40;;;5.90;;
36247;SDS011;22287;50.824;5.644;2022-12-13T04:04:05;14.17;;;7.10;;
36247;SDS011;22287;50.824;5.644;2022-12-13T04:06:35;16.80;;;7.13;;
36247;SDS011;22287;50.824;5.644;2022-12-13T04:09:02;15.23;;;6.83;;
36247;SDS011;22287;50.824;5.644;2022-12-13T04:11:29;14.90;;;6.63;;
36247;SDS011;22287;50.824;5.644;2022-12-13T04:14:14;13.30;;;6.37;;
36247;SDS011;22287;50.824;5.644;2022-12-13T04:16:47;12.30;;;6.77;;
36247;SDS011;22287;50.824;5.644;2022-12-13T04:19:17;13.93;;;6.97;;
36247;SDS011;22287;50.824;5.644;2022-12-13T04:21:50;13.30;;;7.10;;
36247;SDS011;22287;50.824;5.644;2022-12-13T04:26:47;14.97;;;6.13;;
36247;SDS011;22287;50.824;5.644;2022-12-13T04:29:16;14.13;;;6.37;;
36247;SDS011;22287;50.824;5.644;2022-12-13T04:31:43;10.47;;;5.43;;
36247;SDS011;22287;50.824;5.644;2022-12-13T04:34:11;11.20;;;5.87;;
36247;SDS011;22287;50.824;5.644;2022-12-13T04:36:38;14.87;;;6.67;;
36247;SDS011;22287;50.824;5.644;2022-12-13T04:39:04;11.60;;;6.27;;
36247;SDS011;22287;50.824;5.644;2022-12-13T04:41:48;11.17;;;6.63;;
36247;SDS011;22287;50.824;5.644;2022-12-13T04:44:17;10.47;;;5.77;;
36247;SDS011;22287;50.824;5.644;2022-12-13T04:46:54;14.53;;;6.33;;
36247;SDS011;22287;50.824;5.644;2022-12-13T04:49:24;8.93;;;5.77;;
36247;SDS011;22287;50.824;5.644;2022-12-13T04:51:51;11.57;;;6.07;;
36247;SDS011;22287;50.824;5.644;2022-12-13T04:54:22;13.73;;;7.03;;
36247;SDS011;22287;50.824;5.644;2022-12-13T04:56:52;13.10;;;6.70;;
36247;SDS011;22287;50.824;5.644;2022-12-13T04:59:18;15.23;;;6.47;;
36247;SDS011;22287;50.824;5.644;2022-12-13T05:01:45;12.93;;;6.23;;
36247;SDS011;22287;50.824;5.644;2022-12-13T05:04:12;14.13;;;7.03;;
36247;SDS011;22287;50.824;5.644;2022-12-13T05:06:39;15.53;;;6.73;;
36247;SDS011;22287;50.824;5.644;2022-12-13T05:09:06;12.47;;;5.50;;
36247;SDS011;22287;50.824;5.644;2022-12-13T05:11:36;11.63;;;5.95;;
36247;SDS011;22287;50.824;5.644;2022-12-13T05:14:03;14.07;;;6.73;;
36247;SDS011;22287;50.824;5.644;2022-12-13T05:16:30;14.63;;;6.03;;
36247;SDS011;22287;50.824;5.644;2022-12-13T05:18:57;13.70;;;6.93;;
36247;SDS011;22287;50.824;5.644;2022-12-13T05:21:24;14.77;;;6.43;;
36247;SDS011;22287;50.824;5.644;2022-12-13T05:23:51;17.67;;;7.40;;
36247;SDS011;22287;50.824;5.644;2022-12-13T05:26:18;13.43;;;7.43;;
36247;SDS011;22287;50.824;5.644;2022-12-13T05:28:45;14.50;;;6.27;;
36247;SDS011;22287;50.824;5.644;2022-12-13T05:31:11;13.60;;;6.83;;
36247;SDS011;22287;50.824;5.644;2022-12-13T05:33:48;14.97;;;6.60;;
36247;SDS011;22287;50.824;5.644;2022-12-13T05:36:15;14.80;;;6.07;;
36247;SDS011;22287;50.824;5.644;2022-12-13T05:38:41;15.53;;;7.13;;
36247;SDS011;22287;50.824;5.644;2022-12-13T05:41:09;13.60;;;6.23;;
36247;SDS011;22287;50.824;5.644;2022-12-13T05:43:42;16.17;;;6.87;;
36247;SDS011;22287;50.824;5.644;2022-12-13T05:46:09;16.40;;;7.17;;
36247;SDS011;22287;50.824;5.644;2022-12-13T05:48:38;13.63;;;7.27;;
36247;SDS011;22287;50.824;5.644;2022-12-13T05:51:05;14.10;;;6.73;;
36247;SDS011;22287;50.824;5.644;2022-12-13T05:53:35;17.55;;;6.90;;
36247;SDS011;22287;50.824;5.644;2022-12-13T05:56:02;18.37;;;7.70;;
36247;SDS011;22287;50.824;5.644;2022-12-13T05:58:29;17.80;;;9.10;;
36247;SDS011;22287;50.824;5.644;2022-12-13T06:01:07;21.10;;;9.53;;
36247;SDS011;22287;50.824;5.644;2022-12-13T06:03:35;22.23;;;10.47;;
36247;SDS011;22287;50.824;5.644;2022-12-13T06:06:03;22.00;;;10.60;;
36247;SDS011;22287;50.824;5.644;2022-12-13T06:08:30;37.33;;;13.43;;
36247;SDS011;22287;50.824;5.644;2022-12-13T06:10:58;40.40;;;17.50;;
36247;SDS011;22287;50.824;5.644;2022-12-13T06:13:37;44.77;;;17.97;;
36247;SDS011;22287;50.824;5.644;2022-12-13T06:16:09;29.37;;;12.67;;
36247;SDS011;22287;50.824;5.644;2022-12-13T06:18:47;34.97;;;15.43;;
36247;SDS011;22287;50.824;5.644;2022-12-13T06:21:15;41.27;;;15.13;;
36247;SDS011;22287;50.824;5.644;2022-12-13T06:23:43;24.60;;;11.13;;
36247;SDS011;22287;50.824;5.644;2022-12-13T06:26:09;29.97;;;12.57;;
36247;SDS011;22287;50.824;5.644;2022-12-13T06:28:36;25.07;;;10.87;;
36247;SDS011;22287;50.824;5.644;2022-12-13T06:31:03;30.40;;;13.40;;
36247;SDS011;22287;50.824;5.644;2022-12-13T06:33:34;27.17;;;12.47;;
36247;SDS011;22287;50.824;5.644;2022-12-13T06:36:02;22.57;;;11.83;;
36247;SDS011;22287;50.824;5.644;2022-12-13T06:38:30;23.30;;;11.47;;
36247;SDS011;22287;50.824;5.644;2022-12-13T06:43:41;23.97;;;10.87;;
36247;SDS011;22287;50.824;5.644;2022-12-13T06:46:09;23.40;;;10.70;;
36247;SDS011;22287;50.824;5.644;2022-12-13T06:48:36;17.90;;;9.70;;
36247;SDS011;22287;50.824;5.644;2022-12-13T06:51:03;23.87;;;10.97;;
36247;SDS011;22287;50.824;5.644;2022-12-13T06:53:30;22.47;;;11.77;;
36247;SDS011;22287;50.824;5.644;2022-12-13T06:56:02;20.53;;;10.80;;
36247;SDS011;22287;50.824;5.644;2022-12-13T06:58:30;25.23;;;11.47;;
36247;SDS011;22287;50.824;5.644;2022-12-13T07:01:12;21.63;;;11.17;;
36247;SDS011;22287;50.824;5.644;2022-12-13T07:03:50;22.67;;;10.57;;
36247;SDS011;22287;50.824;5.644;2022-12-13T07:06:18;24.93;;;11.57;;
36247;SDS011;22287;50.824;5.644;2022-12-13T07:08:47;24.37;;;11.10;;
36247;SDS011;22287;50.824;5.644;2022-12-13T07:11:16;65.80;;;32.87;;
36247;SDS011;22287;50.824;5.644;2022-12-13T07:13:44;34.53;;;17.50;;
36247;SDS011;22287;50.824;5.644;2022-12-13T07:16:11;42.10;;;22.37;;
36247;SDS011;22287;50.824;5.644;2022-12-13T07:18:38;27.77;;;15.00;;
36247;SDS011;22287;50.824;5.644;2022-12-13T07:21:06;24.70;;;14.80;;
36247;SDS011;22287;50.824;5.644;2022-12-13T07:23:36;43.53;;;19.38;;
36247;SDS011;22287;50.824;5.644;2022-12-13T07:26:04;32.07;;;16.50;;
36247;SDS011;22287;50.824;5.644;2022-12-13T07:28:34;32.27;;;15.20;;
36247;SDS011;22287;50.824;5.644;2022-12-13T07:31:05;27.63;;;14.07;;
36247;SDS011;22287;50.824;5.644;2022-12-13T07:33:33;29.67;;;14.27;;
36247;SDS011;22287;50.824;5.644;2022-12-13T07:36:34;25.23;;;12.40;;
36247;SDS011;22287;50.824;5.644;2022-12-13T07:38:54;25.27;;;10.57;;
36247;SDS011;22287;50.824;5.644;2022-12-13T07:41:23;30.20;;;11.63;;
36247;SDS011;22287;50.824;5.644;2022-12-13T07:43:54;27.57;;;12.97;;
36247;SDS011;22287;50.824;5.644;2022-12-13T07:46:21;28.07;;;12.63;;
36247;SDS011;22287;50.824;5.644;2022-12-13T07:48:51;22.92;;;12.50;;
36247;SDS011;22287;50.824;5.644;2022-12-13T07:51:18;31.07;;;15.60;;
36247;SDS011;22287;50.824;5.644;2022-12-13T07:53:45;29.13;;;14.17;;
36247;SDS011;22287;50.824;5.644;2022-12-13T07:56:11;28.30;;;12.37;;
36247;SDS011;22287;50.824;5.644;2022-12-13T07:58:41;29.97;;;12.70;;
36247;SDS011;22287;50.824;5.644;2022-12-13T08:01:08;39.60;;;16.13;;
36247;SDS011;22287;50.824;5.644;2022-12-13T08:03:37;33.43;;;15.83;;
36247;SDS011;22287;50.824;5.644;2022-12-13T08:06:08;33.00;;;14.03;;
36247;SDS011;22287;50.824;5.644;2022-12-13T08:08:37;35.05;;;15.32;;
36247;SDS011;22287;50.824;5.644;2022-12-13T08:13:33;41.83;;;18.27;;
36247;SDS011;22287;50.824;5.644;2022-12-13T08:16:01;37.47;;;16.70;;
36247;SDS011;22287;50.824;5.644;2022-12-13T08:18:51;34.30;;;14.43;;
36247;SDS011;22287;50.824;5.644;2022-12-13T08:21:19;34.93;;;16.20;;
36247;SDS011;22287;50.824;5.644;2022-12-13T08:24:06;37.07;;;13.53;;
36247;SDS011;22287;50.824;5.644;2022-12-13T08:26:39;29.30;;;14.03;;
36247;SDS011;22287;50.824;5.644;2022-12-13T08:29:07;31.00;;;14.47;;
36247;SDS011;22287;50.824;5.644;2022-12-13T08:31:34;33.07;;;15.63;;
36247;SDS011;22287;50.824;5.644;2022-12-13T08:34:01;34.57;;;16.40;;
36247;SDS011;22287;50.824;5.644;2022-12-13T08:36:28;30.53;;;13.93;;
36247;SDS011;22287;50.824;5.644;2022-12-13T08:38:55;31.77;;;13.97;;
36247;SDS011;22287;50.824;5.644;2022-12-13T08:41:22;33.00;;;13.07;;
36247;SDS011;22287;50.824;5.644;2022-12-13T08:43:49;33.73;;;14.67;;
36247;SDS011;22287;50.824;5.644;2022-12-13T08:46:16;30.33;;;13.30;;
36247;SDS011;22287;50.824;5.644;2022-12-13T08:48:43;29.93;;;12.53;;
36247;SDS011;22287;50.824;5.644;2022-12-13T08:51:10;32.43;;;13.33;;
36247;SDS011;22287;50.824;5.644;2022-12-13T08:53:40;35.08;;;13.70;;
36247;SDS011;22287;50.824;5.644;2022-12-13T08:56:08;30.50;;;12.10;;
36247;SDS011;22287;50.824;5.644;2022-12-13T08:58:37;54.38;;;21.48;;
36247;SDS011;22287;50.824;5.644;2022-12-13T09:01:07;53.17;;;21.60;;
36247;SDS011;22287;50.824;5.644;2022-12-13T09:03:35;39.45;;;16.90;;
36247;SDS011;22287;50.824;5.644;2022-12-13T09:06:06;34.90;;;15.67;;
36247;SDS011;22287;50.824;5.644;2022-12-13T09:08:42;33.30;;;14.30;;
36247;SDS011;22287;50.824;5.644;2022-12-13T09:11:10;30.00;;;13.10;;
36247;SDS011;22287;50.824;5.644;2022-12-13T09:13:49;31.97;;;13.50;;
36247;SDS011;22287;50.824;5.644;2022-12-13T09:16:18;37.77;;;14.37;;
36247;SDS011;22287;50.824;5.644;2022-12-13T09:18:49;36.23;;;14.70;;
36247;SDS011;22287;50.824;5.644;2022-12-13T09:21:21;28.83;;;12.83;;
36247;SDS011;22287;50.824;5.644;2022-12-13T09:23:57;31.63;;;13.63;;
36247;SDS011;22287;50.824;5.644;2022-12-13T09:26:28;33.40;;;13.65;;
36247;SDS011;22287;50.824;5.644;2022-12-13T09:28:55;32.67;;;14.10;;
36247;SDS011;22287;50.824;5.644;2022-12-13T09:31:21;37.00;;;14.30;;
36247;SDS011;22287;50.824;5.644;2022-12-13T09:33:48;29.67;;;13.03;;
36247;SDS011;22287;50.824;5.644;2022-12-13T09:36:16;39.23;;;14.80;;
36247;SDS011;22287;50.824;5.644;2022-12-13T09:38:44;32.43;;;13.73;;
36247;SDS011;22287;50.824;5.644;2022-12-13T09:41:23;31.87;;;14.07;;
36247;SDS011;22287;50.824;5.644;2022-12-13T09:44:04;29.23;;;12.23;;
36247;SDS011;22287;50.824;5.644;2022-12-13T09:46:56;31.53;;;14.73;;
36247;SDS011;22287;50.824;5.644;2022-12-13T09:49:31;35.75;;;15.30;;
36247;SDS011;22287;50.824;5.644;2022-12-13T09:52:04;37.63;;;16.27;;
36247;SDS011;22287;50.824;5.644;2022-12-13T09:54:46;31.20;;;14.37;;
36247;SDS011;22287;50.824;5.644;2022-12-13T09:57:16;35.33;;;14.37;;
36247;SDS011;22287;50.824;5.644;2022-12-13T09:59:58;30.97;;;13.50;;
36247;SDS011;22287;50.824;5.644;2022-12-13T10:02:36;32.77;;;13.30;;
36247;SDS011;22287;50.824;5.644;2022-12-13T10:07:51;30.13;;;13.70;;
36247;SDS011;22287;50.824;5.644;2022-12-13T10:10:25;30.73;;;13.17;;
36247;SDS011;22287;50.824;5.644;2022-12-13T10:15:29;30.93;;;12.50;;
36247;SDS011;22287;50.824;5.644;2022-12-13T10:17:59;24.33;;;10.75;;
36247;SDS011;22287;50.824;5.644;2022-12-13T10:20:29;29.75;;;13.10;;
36247;SDS011;22287;50.824;5.644;2022-12-13T10:22:56;27.40;;;10.97;;
36247;SDS011;22287;50.824;5.644;2022-12-13T10:25:47;25.63;;;10.57;;
36247;SDS011;22287;50.824;5.644;2022-12-13T10:28:24;27.50;;;11.80;;
36247;SDS011;22287;50.824;5.644;2022-12-13T10:30:54;23.27;;;11.53;;
36247;SDS011;22287;50.824;5.644;2022-12-13T10:33:23;29.43;;;12.70;;
36247;SDS011;22287;50.824;5.644;2022-12-13T10:36:33;26.03;;;11.20;;
36247;SDS011;22287;50.824;5.644;2022-12-13T10:39:07;26.20;;;11.97;;
36247;SDS011;22287;50.824;5.644;2022-12-13T10:41:42;28.83;;;11.60;;
36247;SDS011;22287;50.824;5.644;2022-12-13T10:44:21;27.17;;;11.00;;
36247;SDS011;22287;50.824;5.644;2022-12-13T10:47:01;22.00;;;10.60;;
36247;SDS011;22287;50.824;5.644;2022-12-13T10:49:56;23.80;;;11.00;;
36247;SDS011;22287;50.824;5.644;2022-12-13T10:52:31;24.73;;;10.03;;
36247;SDS011;22287;50.824;5.644;2022-12-13T10:58:18;27.63;;;10.97;;
36247;SDS011;22287;50.824;5.644;2022-12-13T11:00:45;26.13;;;11.00;;
36247;SDS011;22287;50.824;5.644;2022-12-13T11:03:32;22.67;;;9.67;;
36247;SDS011;22287;50.824;5.644;2022-12-13T11:06:01;25.33;;;11.27;;
36247;SDS011;22287;50.824;5.644;2022-12-13T11:08:33;31.83;;;13.23;;
36247;SDS011;22287;50.824;5.644;2022-12-13T11:11:00;23.90;;;11.23;;
36247;SDS011;22287;50.824;5.644;2022-12-13T11:13:39;28.87;;;13.13;;
36247;SDS011;22287;50.824;5.644;2022-12-13T11:18:58;23.90;;;11.30;;
36247;SDS011;22287;50.824;5.644;2022-12-13T11:21:29;21.47;;;10.60;;
36247;SDS011;22287;50.824;5.644;2022-12-13T11:24:08;26.58;;;11.70;;
36247;SDS011;22287;50.824;5.644;2022-12-13T11:26:36;32.47;;;16.40;;
36247;SDS011;22287;50.824;5.644;2022-12-13T11:29:17;36.37;;;16.10;;
36247;SDS011;22287;50.824;5.644;2022-12-13T11:39:42;22.40;;;10.97;;
36247;SDS011;22287;50.824;5.644;2022-12-13T11:42:21;22.75;;;11.45;;
36247;SDS011;22287;50.824;5.644;2022-12-13T11:45:05;22.98;;;10.50;;
36247;SDS011;22287;50.824;5.644;2022-12-13T11:47:41;20.77;;;10.57;;
36247;SDS011;22287;50.824;5.644;2022-12-13T11:50:21;19.97;;;10.10;;
36247;SDS011;22287;50.824;5.644;2022-12-13T12:04:50;24.48;;;9.73;;
36247;SDS011;22287;50.824;5.644;2022-12-13T12:07:38;20.37;;;10.03;;
36247;SDS011;22287;50.824;5.644;2022-12-13T12:10:31;19.67;;;8.87;;
36247;SDS011;22287;50.824;5.644;2022-12-13T12:15:56;22.35;;;10.82;;
36247;SDS011;22287;50.824;5.644;2022-12-13T12:18:25;21.87;;;10.50;;
36247;SDS011;22287;50.824;5.644;2022-12-13T12:40:31;18.53;;;9.00;;
36247;SDS011;22287;50.824;5.644;2022-12-13T12:46:45;19.97;;;8.63;;
36247;SDS011;22287;50.824;5.644;2022-12-13T12:53:10;22.30;;;10.27;;
36247;SDS011;22287;50.824;5.644;2022-12-13T12:56:22;20.00;;;9.53;;
36247;SDS011;22287;50.824;5.644;2022-12-13T12:58:54;24.02;;;11.52;;
36247;SDS011;22287;50.824;5.644;2022-12-13T13:04:09;19.30;;;9.30;;
36247;SDS011;22287;50.824;5.644;2022-12-13T13:06:45;22.90;;;9.63;;
36247;SDS011;22287;50.824;5.644;2022-12-13T13:09:16;25.23;;;11.53;;
36247;SDS011;22287;50.824;5.644;2022-12-13T13:11:49;24.73;;;13.50;;
36247;SDS011;22287;50.824;5.644;2022-12-13T13:14:32;25.37;;;12.80;;
36247;SDS011;22287;50.824;5.644;2022-12-13T13:19:53;27.13;;;13.27;;
36247;SDS011;22287;50.824;5.644;2022-12-13T13:22:33;45.37;;;19.60;;
36247;SDS011;22287;50.824;5.644;2022-12-13T13:27:59;39.40;;;18.00;;
36247;SDS011;22287;50.824;5.644;2022-12-13T13:33:47;45.20;;;21.27;;
36247;SDS011;22287;50.824;5.644;2022-12-13T13:39:10;34.60;;;17.30;;
36247;SDS011;22287;50.824;5.644;2022-12-13T14:22:31;26.27;;;12.83;;
36247;SDS011;22287;50.824;5.644;2022-12-13T14:31:32;24.13;;;11.53;;
36247;SDS011;22287;50.824;5.644;2022-12-13T14:34:21;24.93;;;11.50;;
36247;SDS011;22287;50.824;5.644;2022-12-13T14:37:18;21.13;;;10.23;;
36247;SDS011;22287;50.824;5.644;2022-12-13T14:39:48;27.47;;;12.03;;
36247;SDS011;22287;50.824;5.644;2022-12-13T14:42:32;27.42;;;13.35;;
36247;SDS011;22287;50.824;5.644;2022-12-13T14:47:56;22.90;;;11.63;;
36247;SDS011;22287;50.824;5.644;2022-12-13T14:50:25;21.83;;;11.57;;
36247;SDS011;22287;50.824;5.644;2022-12-13T14:53:13;21.67;;;10.67;;
36247;SDS011;22287;50.824;5.644;2022-12-13T14:56:04;24.37;;;11.23;;
36247;SDS011;22287;50.824;5.644;2022-12-13T15:01:44;22.47;;;10.77;;
36247;SDS011;22287;50.824;5.644;2022-12-13T15:06:54;21.27;;;10.43;;
36247;SDS011;22287;50.824;5.644;2022-12-13T15:09:28;22.77;;;10.87;;
36247;SDS011;22287;50.824;5.644;2022-12-13T15:11:56;19.97;;;10.30;;
36247;SDS011;22287;50.824;5.644;2022-12-13T15:14:29;21.27;;;10.67;;
36247;SDS011;22287;50.824;5.644;2022-12-13T15:16:56;21.53;;;10.63;;
36247;SDS011;22287;50.824;5.644;2022-12-13T15:19:27;24.60;;;10.82;;
36247;SDS011;22287;50.824;5.644;2022-12-13T15:22:00;27.73;;;11.83;;
36247;SDS011;22287;50.824;5.644;2022-12-13T15:24:35;20.13;;;10.17;;
36247;SDS011;22287;50.824;5.644;2022-12-13T15:27:09;16.67;;;8.97;;
36247;SDS011;22287;50.824;5.644;2022-12-13T15:29:37;22.87;;;10.87;;
36247;SDS011;22287;50.824;5.644;2022-12-13T15:32:08;22.17;;;9.83;;
36247;SDS011;22287;50.824;5.644;2022-12-13T15:34:37;20.23;;;9.53;;
36247;SDS011;22287;50.824;5.644;2022-12-13T15:37:05;18.13;;;9.27;;
36247;SDS011;22287;50.824;5.644;2022-12-13T15:39:55;21.70;;;10.32;;
36247;SDS011;22287;50.824;5.644;2022-12-13T15:42:32;19.87;;;9.17;;
36247;SDS011;22287;50.824;5.644;2022-12-13T15:45:03;18.63;;;9.35;;
36247;SDS011;22287;50.824;5.644;2022-12-13T15:47:44;19.80;;;8.37;;
36247;SDS011;22287;50.824;5.644;2022-12-13T15:52:57;23.17;;;8.80;;
36247;SDS011;22287;50.824;5.644;2022-12-13T15:55:31;17.37;;;7.80;;
36247;SDS011;22287;50.824;5.644;2022-12-13T15:58:01;17.30;;;8.60;;
36247;SDS011;22287;50.824;5.644;2022-12-13T16:00:29;17.93;;;8.27;;
36247;SDS011;22287;50.824;5.644;2022-12-13T16:03:13;20.60;;;8.87;;
36247;SDS011;22287;50.824;5.644;2022-12-13T16:05:48;15.40;;;8.23;;
36247;SDS011;22287;50.824;5.644;2022-12-13T16:08:20;14.20;;;7.37;;
36247;SDS011;22287;50.824;5.644;2022-12-13T16:10:58;15.23;;;8.67;;
36247;SDS011;22287;50.824;5.644;2022-12-13T16:18:42;19.97;;;9.97;;
36247;SDS011;22287;50.824;5.644;2022-12-13T16:21:11;16.57;;;10.17;;
36247;SDS011;22287;50.824;5.644;2022-12-13T16:23:39;19.73;;;9.57;;
36247;SDS011;22287;50.824;5.644;2022-12-13T16:26:09;19.77;;;9.00;;
36247;SDS011;22287;50.824;5.644;2022-12-13T16:28:39;15.80;;;8.20;;
36247;SDS011;22287;50.824;5.644;2022-12-13T16:31:17;16.40;;;8.80;;
36247;SDS011;22287;50.824;5.644;2022-12-13T16:33:48;15.07;;;8.13;;
36247;SDS011;22287;50.824;5.644;2022-12-13T16:36:15;15.33;;;8.17;;
36247;SDS011;22287;50.824;5.644;2022-12-13T16:38:41;17.17;;;8.33;;
36247;SDS011;22287;50.824;5.644;2022-12-13T16:41:09;17.10;;;8.17;;
36247;SDS011;22287;50.824;5.644;2022-12-13T16:43:39;16.07;;;8.27;;
36247;SDS011;22287;50.824;5.644;2022-12-13T16:46:21;14.83;;;7.47;;
36247;SDS011;22287;50.824;5.644;2022-12-13T16:49:23;16.83;;;8.60;;
36247;SDS011;22287;50.824;5.644;2022-12-13T16:51:51;17.30;;;8.13;;
36247;SDS011;22287;50.824;5.644;2022-12-13T16:54:20;17.50;;;8.17;;
36247;SDS011;22287;50.824;5.644;2022-12-13T16:56:49;17.90;;;7.80;;
36247;SDS011;22287;50.824;5.644;2022-12-13T16:59:17;16.77;;;8.33;;
36247;SDS011;22287;50.824;5.644;2022-12-13T17:01:47;16.35;;;7.75;;
36247;SDS011;22287;50.824;5.644;2022-12-13T17:04:19;17.17;;;8.90;;
36247;SDS011;22287;50.824;5.644;2022-12-13T17:06:49;16.40;;;7.73;;
36247;SDS011;22287;50.824;5.644;2022-12-13T17:09:17;19.00;;;9.03;;
36247;SDS011;22287;50.824;5.644;2022-12-13T17:11:44;16.17;;;8.37;;
36247;SDS011;22287;50.824;5.644;2022-12-13T17:14:12;18.33;;;9.47;;
36247;SDS011;22287;50.824;5.644;2022-12-13T17:16:39;14.43;;;7.87;;
36247;SDS011;22287;50.824;5.644;2022-12-13T17:19:06;17.07;;;7.57;;
36247;SDS011;22287;50.824;5.644;2022-12-13T17:21:33;16.17;;;7.20;;
36247;SDS011;22287;50.824;5.644;2022-12-13T17:24:00;15.90;;;7.50;;
36247;SDS011;22287;50.824;5.644;2022-12-13T17:26:28;15.43;;;6.97;;
36247;SDS011;22287;50.824;5.644;2022-12-13T17:28:54;16.00;;;7.67;;
36247;SDS011;22287;50.824;5.644;2022-12-13T17:31:21;17.73;;;7.77;;
36247;SDS011;22287;50.824;5.644;2022-12-13T17:33:48;16.13;;;7.97;;
36247;SDS011;22287;50.824;5.644;2022-12-13T17:36:15;19.13;;;8.17;;
36247;SDS011;22287;50.824;5.644;2022-12-13T17:38:44;13.50;;;7.17;;
36247;SDS011;22287;50.824;5.644;2022-12-13T17:41:12;19.77;;;8.67;;
36247;SDS011;22287;50.824;5.644;2022-12-13T17:43:39;18.77;;;8.67;;
36247;SDS011;22287;50.824;5.644;2022-12-13T17:46:09;15.30;;;8.20;;
36247;SDS011;22287;50.824;5.644;2022-12-13T17:48:37;16.52;;;8.10;;
36247;SDS011;22287;50.824;5.644;2022-12-13T17:51:06;17.93;;;7.53;;
36247;SDS011;22287;50.824;5.644;2022-12-13T17:53:34;16.77;;;8.47;;